Grande Italia — IBTF — position and weather

sailwx.info

Track history (hours):
 
Tides and Currents Weather Stations Pressure Air Temp Water Temp Dewpoint Dewpoint Depression Visibility Wind Speed Wind Dir Waves Ship Positions

Grande Italia

Last reported at 2014-Oct-01 09:32 UTC. Time now 2014-Oct-01 10:18 UTC.
Position N 51°30' W 002°43'.

Length 177 m; draft 7.8 m.

Type: Cargo ship. MMSI: 247039300.

Date/timePositionNaut miles runAvg speedWind from/ knotsBaromVisibWave heightAir tempDewpointWater temp
2014-Oct-01 09:32N 51°30' W 002°43'0 0.0
2014-Oct-01 08:32N 51°30' W 002°43'0 0.0
2014-Oct-01 07:32N 51°30' W 002°43'0 0.0
2014-Oct-01 06:32N 51°30' W 002°43'0 0.0
2014-Oct-01 05:32N 51°30' W 002°43'0 0.0
2014-Oct-01 04:32N 51°30' W 002°43'0 0.0
2014-Oct-01 03:32N 51°30' W 002°43'0 0.0
2014-Oct-01 02:32N 51°30' W 002°43'0 0.0
2014-Oct-01 01:32N 51°30' W 002°43'0 0.0
2014-Oct-01 00:32N 51°30' W 002°43'0 0.0
2014-Sep-30 23:32N 51°30' W 002°43'0 0.0
2014-Sep-30 22:32N 51°30' W 002°43'0 0.0
2014-Sep-30 21:32N 51°30' W 002°43'0 0.4
2014-Sep-30 20:33N 51°30' W 002°43'1 0.6
2014-Sep-30 19:33N 51°30' W 002°44'1515.2
2014-Sep-30 18:33N 51°23' W 003°05'8113.4
2014-Sep-30 12:32N 50°50' W 005°02'1514.9
2014-Sep-30 11:33N 50°40' W 005°19'1514.9
2014-Sep-30 10:33N 50°30' W 005°36'14911.5
2014-Sep-29 21:33N 50°25' W 001°42'1514.8
2014-Sep-29 20:33N 50°29' W 001°20'1413.9
2014-Sep-29 19:33N 50°35' W 000°60'1111.4
2014-Sep-29 18:33N 50°45' W 001°07'1110.7
2014-Sep-29 17:33N 50°51' W 001°21'4 4.1
2014-Sep-29 16:32N 50°54' W 001°26'0 0.0
2014-Sep-29 15:32N 50°54' W 001°26'0 0.0
2014-Sep-29 14:32N 50°54' W 001°26'0 0.0
2014-Sep-29 13:32N 50°54' W 001°26'0 0.0
2014-Sep-29 12:32N 50°54' W 001°26'0 0.0
2014-Sep-29 11:32N 50°54' W 001°26'0 0.0
2014-Sep-29 10:32N 50°54' W 001°26'0 0.0
2014-Sep-29 09:32N 50°54' W 001°26'0 0.0
2014-Sep-29 08:32N 50°54' W 001°26'0 0.0
2014-Sep-29 07:32N 50°54' W 001°26'0 0.0
2014-Sep-29 06:32N 50°54' W 001°26'0 0.0
2014-Sep-29 05:32N 50°54' W 001°26'2 2.4
2014-Sep-29 04:34N 50°53' W 001°23'7 6.9
2014-Sep-29 03:34N 50°47' W 001°18'1313.2
2014-Sep-29 02:33N 50°42' W 000°58'6 6.4
2014-Sep-29 01:33N 50°35' W 000°59'7 6.7
2014-Sep-29 00:33N 50°31' W 001°08'1211.8
2014-Sep-28 23:33N 50°29' W 001°26'1818.4
2014-Sep-28 22:33N 50°24' W 001°54'1918.7
2014-Sep-28 21:33N 50°19' W 002°22'75916.9
2014-Sep-27 00:33N 38°51' W 009°52'1818.1
2014-Sep-26 23:32N 38°33' W 009°49'2017.9
2014-Sep-26 22:27N 38°14' W 009°43'1618.1
2014-Sep-26 21:33N 37°58' W 009°39'1817.6
2014-Sep-26 20:33N 37°41' W 009°34'1818.0
2014-Sep-26 19:33N 37°24' W 009°28'1818.0
2014-Sep-26 18:33N 37°06' W 009°23'1817.6
2014-Sep-26 17:33N 36°50' W 009°16'1817.7
2014-Sep-26 16:30N 36°41' W 008°55'1718.1
2014-Sep-26 15:33N 36°35' W 008°35'15817.5
2014-Sep-26 06:30N 36°01' W 005°23'65817.8
2014-Sep-24 17:33N 38°30' E 008°02'1918.4
2014-Sep-24 16:32N 38°34' E 008°25'1818.4
2014-Sep-24 15:33N 38°39' E 008°48'1818.1
2014-Sep-24 14:33N 38°45' E 009°09'1818.2
2014-Sep-24 13:33N 38°52' E 009°31'1918.3
2014-Sep-24 12:31N 39°00' E 009°53'  
2014-Sep-21 19:08N 36°25' E 023°03'916.3
2014-Sep-21 18:33N 36°25' E 023°15'1717.3
2014-Sep-21 17:33N 36°40' E 023°26'1717.2
2014-Sep-21 16:34N 36°53' E 023°40'1917.2
2014-Sep-21 15:26N 37°07' E 023°56'1617.3
2014-Sep-21 14:29N 37°20' E 024°09'1617.3
2014-Sep-21 13:34N 37°32' E 024°23'1817.1
2014-Sep-21 12:31N 37°48' E 024°31'  
Track history (hours):
 
Tides and Currents Weather Stations Pressure Air Temp Water Temp Dewpoint Dewpoint Depression Visibility Wind Speed Wind Dir Waves Ship Positions

Grande Italia

Last reported at 2014-Oct-01 09:32 UTC. Time now 2014-Oct-01 10:18 UTC.
Position N 51°30' W 002°43'.

Length 177 m; draft 7.8 m.

Type: Cargo ship. MMSI: 247039300.

Date/timePositionNaut miles runAvg speedWind from/ knotsBaromVisibWave heightAir tempDewpointWater temp
2014-Oct-01 09:32N 51°30' W 002°43'0 0.0
2014-Oct-01 08:32N 51°30' W 002°43'0 0.0
2014-Oct-01 07:32N 51°30' W 002°43'0 0.0
2014-Oct-01 06:32N 51°30' W 002°43'0 0.0
2014-Oct-01 05:32N 51°30' W 002°43'0 0.0
2014-Oct-01 04:32N 51°30' W 002°43'0 0.0
2014-Oct-01 03:32N 51°30' W 002°43'0 0.0
2014-Oct-01 02:32N 51°30' W 002°43'0 0.0
2014-Oct-01 01:32N 51°30' W 002°43'0 0.0
2014-Oct-01 00:32N 51°30' W 002°43'0 0.0
2014-Sep-30 23:32N 51°30' W 002°43'0 0.0
2014-Sep-30 22:32N 51°30' W 002°43'0 0.0
2014-Sep-30 21:32N 51°30' W 002°43'0 0.4
2014-Sep-30 20:33N 51°30' W 002°43'1 0.6
2014-Sep-30 19:33N 51°30' W 002°44'1515.2
2014-Sep-30 18:33N 51°23' W 003°05'8113.4
2014-Sep-30 12:32N 50°50' W 005°02'1514.9
2014-Sep-30 11:33N 50°40' W 005°19'1514.9
2014-Sep-30 10:33N 50°30' W 005°36'14911.5
2014-Sep-29 21:33N 50°25' W 001°42'1514.8
2014-Sep-29 20:33N 50°29' W 001°20'1413.9
2014-Sep-29 19:33N 50°35' W 000°60'1111.4
2014-Sep-29 18:33N 50°45' W 001°07'1110.7
2014-Sep-29 17:33N 50°51' W 001°21'4 4.1
2014-Sep-29 16:32N 50°54' W 001°26'0 0.0
2014-Sep-29 15:32N 50°54' W 001°26'0 0.0
2014-Sep-29 14:32N 50°54' W 001°26'0 0.0
2014-Sep-29 13:32N 50°54' W 001°26'0 0.0
2014-Sep-29 12:32N 50°54' W 001°26'0 0.0
2014-Sep-29 11:32N 50°54' W 001°26'0 0.0
2014-Sep-29 10:32N 50°54' W 001°26'0 0.0
2014-Sep-29 09:32N 50°54' W 001°26'0 0.0
2014-Sep-29 08:32N 50°54' W 001°26'0 0.0
2014-Sep-29 07:32N 50°54' W 001°26'0 0.0
2014-Sep-29 06:32N 50°54' W 001°26'0 0.0
2014-Sep-29 05:32N 50°54' W 001°26'2 2.4
2014-Sep-29 04:34N 50°53' W 001°23'7 6.9
2014-Sep-29 03:34N 50°47' W 001°18'1313.2
2014-Sep-29 02:33N 50°42' W 000°58'6 6.4
2014-Sep-29 01:33N 50°35' W 000°59'7 6.7
2014-Sep-29 00:33N 50°31' W 001°08'1211.8
2014-Sep-28 23:33N 50°29' W 001°26'1818.4
2014-Sep-28 22:33N 50°24' W 001°54'1918.7
2014-Sep-28 21:33N 50°19' W 002°22'75916.9
2014-Sep-27 00:33N 38°51' W 009°52'1818.1
2014-Sep-26 23:32N 38°33' W 009°49'2017.9
2014-Sep-26 22:27N 38°14' W 009°43'1618.1
2014-Sep-26 21:33N 37°58' W 009°39'1817.6
2014-Sep-26 20:33N 37°41' W 009°34'1818.0
2014-Sep-26 19:33N 37°24' W 009°28'1818.0
2014-Sep-26 18:33N 37°06' W 009°23'1817.6
2014-Sep-26 17:33N 36°50' W 009°16'1817.7
2014-Sep-26 16:30N 36°41' W 008°55'1718.1
2014-Sep-26 15:33N 36°35' W 008°35'15817.5
2014-Sep-26 06:30N 36°01' W 005°23'65817.8
2014-Sep-24 17:33N 38°30' E 008°02'1918.4
2014-Sep-24 16:32N 38°34' E 008°25'1818.4
2014-Sep-24 15:33N 38°39' E 008°48'1818.1
2014-Sep-24 14:33N 38°45' E 009°09'1818.2
2014-Sep-24 13:33N 38°52' E 009°31'1918.3
2014-Sep-24 12:31N 39°00' E 009°53'  
2014-Sep-21 19:08N 36°25' E 023°03'916.3
2014-Sep-21 18:33N 36°25' E 023°15'1717.3
2014-Sep-21 17:33N 36°40' E 023°26'1717.2
2014-Sep-21 16:34N 36°53' E 023°40'1917.2
2014-Sep-21 15:26N 37°07' E 023°56'1617.3
2014-Sep-21 14:29N 37°20' E 024°09'1617.3
2014-Sep-21 13:34N 37°32' E 024°23'1817.1
2014-Sep-21 12:31N 37°48' E 024°31'  

Dump ship's entire track history